Terminal Aerodrome Forecast
Issued by NWS

Home | Current Version | Previous Version | Text Only | Print | Product List | Glossary Off
Versions: 1 2 3 4 5 6 7 8 9 10 11 12 13

823
FTUS43 KGRB 090520
TAFCWA
TAF
KCWA 090520Z 0906/1006 33010KT 6SM -SN OVC021
      TEMPO 0906/0910 3SM -SN OVC017
     FM091000 32012KT 6SM -SN BR SCT015 OVC040
      TEMPO 0910/0914 5SM -SN BR OVC015
     FM091400 32012G20KT P6SM OVC025
     FM100000 32012KT P6SM OVC050
      AMD LTD TO CLD VIS AND WND TIL 11Z=

USA.gov is the U.S. government's official web portal to all federal, state and local government web resources and services.